Roslindale, MA (02131)

6:17 PM EST on February 26, 2015 (GMT -0500)
KMAJAMAI4 | Change Station
CLOSE
Current Station
Personal Weather Station
Location: (Arnold Arboretum ) Roslindale, MA
Elevation: 148 ft
Nearby Weather Stations

Elev 148 ft 42.30 °N, 71.13 °W | Updated 51 minutes ago

Overcast
Overcast
20.7 °F
Feels Like 15 °F
N
3.8
Wind Variable Wind from North
Gusts 6.7 mph

Today
High -- | Low -- °F
--% Chance of Precip.
Yesterday
High -- | Low -- °F
Precip. -- in
6:25 AM 5:30 PM
Waxing Gibbous, 63% visible
Pressure 30.01 in
Visibility 10.0 miles
Clouds Overcast 10000 ft
Windchill 15 °F
Dew Point 12 °F
Humidity 68%
Rainfall -999.00 in
Snow Depth Not available.
UV 0 out of 12
Pollen .40 out of 12
Air Quality Not available.
Flu Activity Not available.
METAR KOWD 262253Z 36003KT 10SM OVC100 M06/M12 A3000 RMK AO2 SLP161 T10611122

More Conditions Fewer Conditions

Pressure 30.01 in
Visibility 10.0 miles
Clouds Overcast 10000 ft
Windchill 15 °F
Dew Point 12 °F
Humidity 68%
Rainfall -999.00 in
Snow Depth Not available.
UV 0 out of 12
Pollen .40 out of 12
Air Quality Not available.
Flu Activity Not available.
METAR KOWD 262253Z 36003KT 10SM OVC100 M06/M12 A3000 RMK AO2 SLP161 T10611122

More Conditions Fewer Conditions

10-Day Weather Forecast

Almanac

Astronomy

Feb. 26, 2015 Rise Set
Actual Time
Civil Twilight
Nautical Twilight
Astronomical Twilight
Moon
Length of Visible Light
Length of Day
Tomorrow will be .
, % of the Moon is Illuminated

Today's Extremes

State Highs State Lows

Community

WunderPhotos

Upload Photos

1,800,523 photos uploaded!

WunderBlogs® & News

Nearby

Air Quality

  Air Quality AQ Index Pollutant
Not available.

Snow Depth

Station Depth Elevation

Earthquake Activity

City Distance Mag. Time & Date
Minimum magnitude displayed is 2.5.

Coastal Water Temperatures

Place Temperature

Nearby Weather Stations